createdAt,value
2018-04-06T00:02:24.370Z,7.32
2018-04-06T00:04:50.620Z,4.30
2018-04-06T00:07:17.579Z,8.52
2018-04-06T00:09:44.571Z,3.75
2018-04-06T00:12:10.805Z,6.55
2018-04-06T00:14:37.039Z,5.28
2018-04-06T00:17:03.402Z,3.58
2018-04-06T00:19:29.612Z,8.18
2018-04-06T00:21:56.590Z,5.68
2018-04-06T00:24:22.871Z,3.28
2018-04-06T00:26:49.109Z,5.95
2018-04-06T00:29:15.351Z,4.00
2018-04-06T00:31:41.573Z,6.93
2018-04-06T00:34:07.835Z,6.12
2018-04-06T00:36:34.042Z,4.95
2018-04-06T00:39:00.254Z,5.07
2018-04-06T00:41:27.244Z,6.22
2018-04-06T00:43:53.476Z,3.78
2018-04-06T00:46:19.709Z,8.68
2018-04-06T00:48:45.954Z,5.25
2018-04-06T00:51:12.214Z,7.60
2018-04-06T00:53:46.415Z,4.05
2018-04-06T00:56:12.649Z,3.78
2018-04-06T00:58:39.620Z,5.78
2018-04-06T01:01:05.841Z,3.97
2018-04-06T01:03:32.792Z,3.12
2018-04-06T01:05:59.764Z,6.72
2018-04-06T01:08:25.987Z,5.12
2018-04-06T01:10:52.957Z,4.12
2018-04-06T01:13:19.908Z,4.78
2018-04-06T01:15:46.144Z,8.20
2018-04-06T01:18:13.455Z,6.20
2018-04-06T01:20:39.664Z,6.37
2018-04-06T01:23:05.932Z,3.65
2018-04-06T01:25:32.166Z,4.22
2018-04-06T01:27:58.389Z,6.55
2018-04-06T01:30:24.625Z,3.55
2018-04-06T01:32:50.860Z,4.20
2018-04-06T01:35:17.823Z,4.30
2018-04-06T01:37:44.784Z,6.15
2018-04-06T01:40:11.004Z,6.53
2018-04-06T01:42:38.071Z,6.03
2018-04-06T01:45:05.070Z,4.12
2018-04-06T01:47:31.827Z,3.95
2018-04-06T01:49:58.031Z,7.68
2018-04-06T01:52:25.007Z,4.55
2018-04-06T01:54:51.233Z,4.47
2018-04-06T01:57:18.219Z,5.32
2018-04-06T01:59:44.440Z,6.30
2018-04-06T02:02:10.659Z,4.97
2018-04-06T02:04:37.651Z,6.97
2018-04-06T02:07:03.891Z,7.60
2018-04-06T02:09:30.135Z,3.87
2018-04-06T02:11:56.355Z,4.40
2018-04-06T02:14:22.614Z,3.42
2018-04-06T02:16:48.819Z,5.82
2018-04-06T02:19:16.026Z,5.75
2018-04-06T02:21:42.265Z,4.95
2018-04-06T02:24:08.481Z,7.78
2018-04-06T02:26:34.707Z,5.55
2018-04-06T02:29:01.679Z,6.65
2018-04-06T02:31:27.904Z,5.53
2018-04-06T02:33:54.168Z,7.75
2018-04-06T02:36:20.397Z,5.70
2018-04-06T02:38:46.616Z,7.37
2018-04-06T02:41:13.610Z,7.32
2018-04-06T02:43:39.877Z,8.93
2018-04-06T02:46:06.059Z,6.30
2018-04-06T02:48:33.004Z,6.40
2018-04-06T02:50:59.976Z,5.07
2018-04-06T02:53:26.932Z,7.78
2018-04-06T02:55:53.885Z,5.60
2018-04-06T02:58:20.851Z,13.38
2018-04-06T03:00:47.813Z,12.98
2018-04-06T03:03:14.045Z,10.57
2018-04-06T03:05:40.995Z,6.90
2018-04-06T03:08:07.959Z,11.23
2018-04-06T03:10:34.919Z,9.02
2018-04-06T03:13:01.900Z,8.35
2018-04-06T03:15:28.119Z,10.50
2018-04-06T03:17:55.080Z,11.65
2018-04-06T03:20:22.276Z,8.13
2018-04-06T03:22:48.498Z,6.53
2018-04-06T03:25:14.762Z,7.65
2018-04-06T03:27:41.000Z,8.45
2018-04-06T03:30:07.218Z,7.68
2018-04-06T03:32:33.454Z,6.15
2018-04-06T03:34:59.674Z,8.43
2018-04-06T03:37:26.640Z,6.10
2018-04-06T03:39:53.596Z,6.53
2018-04-06T03:42:20.542Z,6.37
2018-04-06T03:44:47.490Z,7.43
2018-04-06T03:47:13.755Z,5.85
2018-04-06T03:49:39.969Z,16.83
2018-04-06T03:52:06.200Z,8.27
2018-04-06T03:54:32.417Z,9.15
2018-04-06T03:56:58.654Z,7.72
2018-04-06T03:59:24.905Z,7.30
2018-04-06T04:01:51.141Z,6.93
2018-04-06T04:04:17.371Z,6.53
2018-04-06T04:06:43.584Z,7.55
2018-04-06T04:09:09.794Z,7.97
2018-04-06T04:11:35.999Z,6.60
2018-04-06T04:14:02.980Z,6.32
2018-04-06T04:16:29.207Z,15.15
2018-04-06T04:18:55.447Z,4.72
2018-04-06T04:21:21.988Z,7.78
2018-04-06T04:23:48.251Z,7.70
2018-04-06T04:26:14.481Z,8.18
2018-04-06T04:28:40.724Z,8.93
2018-04-06T04:31:06.925Z,8.20
2018-04-06T04:33:33.147Z,9.90
2018-04-06T04:35:59.382Z,5.53
2018-04-06T04:38:26.343Z,8.90
2018-04-06T04:40:53.291Z,8.63
2018-04-06T04:43:20.256Z,5.07
2018-04-06T04:45:47.216Z,8.77
2018-04-06T04:48:14.182Z,9.20
2018-04-06T04:50:40.410Z,8.73
2018-04-06T04:53:07.379Z,9.45
2018-04-06T04:55:33.587Z,13.62
2018-04-06T04:57:59.851Z,11.20
2018-04-06T05:00:26.779Z,11.40
2018-04-06T05:02:53.029Z,11.55
2018-04-06T05:05:19.995Z,14.55
2018-04-06T05:07:46.958Z,13.60
2018-04-06T05:10:13.933Z,14.65
2018-04-06T05:12:40.174Z,8.38
2018-04-06T05:15:06.393Z,10.70
2018-04-06T05:17:33.376Z,10.00
2018-04-06T05:20:00.322Z,8.48
2018-04-06T05:22:26.702Z,15.60
2018-04-06T05:24:52.937Z,9.88
2018-04-06T05:27:19.154Z,7.82
2018-04-06T05:29:45.406Z,9.95
2018-04-06T05:32:11.619Z,9.52
2018-04-06T05:34:38.602Z,9.65
2018-04-06T05:37:04.804Z,9.18
2018-04-06T05:39:31.768Z,15.00
2018-04-06T05:41:58.723Z,13.50
2018-04-06T05:44:25.683Z,11.77
2018-04-06T05:46:52.635Z,12.75
2018-04-06T05:49:19.605Z,19.70
2018-04-06T05:51:46.564Z,21.23
2018-04-06T05:54:13.524Z,14.43
2018-04-06T05:56:39.788Z,16.87
2018-04-06T05:59:06.031Z,28.52
2018-04-06T06:01:32.231Z,27.83
2018-04-06T06:03:59.195Z,14.00
2018-04-06T06:06:26.146Z,15.68
2018-04-06T06:08:53.151Z,13.77
2018-04-06T06:11:19.352Z,12.50
2018-04-06T06:13:46.324Z,14.60
2018-04-06T06:16:12.553Z,13.68
2018-04-06T06:18:39.527Z,25.23
2018-04-06T06:21:05.746Z,28.33
2018-04-06T06:23:32.796Z,14.18
2018-04-06T06:25:59.780Z,25.02
2018-04-06T06:28:26.021Z,21.67
2018-04-06T06:30:52.231Z,29.10
2018-04-06T06:33:19.211Z,12.95
2018-04-06T06:35:45.447Z,18.70
2018-04-06T06:38:12.397Z,17.35
2018-04-06T06:40:39.371Z,18.23
2018-04-06T06:43:05.652Z,19.75
2018-04-06T06:45:31.821Z,21.87
2018-04-06T06:47:58.031Z,17.42
2018-04-06T06:50:24.271Z,19.35
2018-04-06T06:52:50.480Z,19.67
2018-04-06T06:55:16.734Z,14.87
2018-04-06T06:57:42.973Z,13.75
2018-04-06T07:00:09.205Z,15.52
2018-04-06T07:02:36.270Z,18.75
2018-04-06T07:05:02.536Z,17.33
2018-04-06T07:07:28.732Z,19.23
2018-04-06T07:09:54.967Z,21.75
2018-04-06T07:12:21.930Z,21.60
2018-04-06T07:14:48.220Z,19.30
2018-04-06T07:17:14.478Z,16.73
2018-04-06T07:19:40.680Z,18.10
2018-04-06T07:22:06.969Z,21.50
2018-04-06T07:24:34.019Z,19.67
2018-04-06T07:27:00.267Z,20.33
2018-04-06T07:29:26.503Z,15.68
2018-04-06T07:31:52.705Z,20.85
2018-04-06T07:34:18.931Z,17.70
2018-04-06T07:36:45.160Z,20.30
2018-04-06T07:39:11.372Z,17.75
2018-04-06T07:41:38.354Z,16.20
2018-04-06T07:44:04.581Z,19.80
2018-04-06T07:46:31.552Z,18.30
2018-04-06T07:48:57.776Z,20.73
2018-04-06T07:51:24.755Z,18.95
2018-04-06T07:53:50.952Z,20.48
2018-04-06T07:56:17.179Z,22.42
2018-04-06T07:58:44.168Z,19.90
2018-04-06T08:01:11.149Z,19.52
2018-04-06T08:03:37.371Z,19.67
2018-04-06T08:06:04.368Z,18.37
2018-04-06T08:08:30.569Z,18.87
2018-04-06T08:10:57.589Z,29.63
2018-04-06T08:13:23.813Z,16.30
2018-04-06T08:15:50.047Z,23.30
2018-04-06T08:18:16.243Z,20.77
2018-04-06T08:20:43.215Z,19.75
2018-04-06T08:23:09.481Z,22.35
2018-04-06T08:25:35.731Z,25.42
2018-04-06T08:28:01.967Z,22.33
2018-04-06T08:30:28.223Z,22.75
2018-04-06T08:32:54.437Z,22.80
2018-04-06T08:35:20.677Z,26.48
2018-04-06T08:37:46.925Z,25.62
2018-04-06T08:40:13.158Z,21.05
2018-04-06T08:42:39.374Z,19.17
2018-04-06T08:45:06.360Z,18.70
2018-04-06T08:47:32.584Z,19.15
2018-04-06T08:49:58.814Z,19.42
2018-04-06T08:52:25.060Z,18.80
2018-04-06T08:54:51.325Z,30.73
2018-04-06T08:57:17.571Z,17.10
2018-04-06T08:59:43.801Z,22.45
2018-04-06T09:02:10.027Z,27.15
2018-04-06T09:04:36.245Z,27.23
2018-04-06T09:07:03.221Z,18.17
2018-04-06T09:09:29.418Z,23.38
2018-04-06T09:11:55.658Z,22.37
2018-04-06T09:14:21.879Z,21.17
2018-04-06T09:16:48.138Z,16.85
2018-04-06T09:19:14.393Z,17.17
2018-04-06T09:21:40.643Z,20.50
2018-04-06T09:24:07.626Z,16.60
2018-04-06T09:26:33.891Z,18.83
2018-04-06T09:29:00.098Z,14.55
2018-04-06T09:31:26.329Z,21.50
2018-04-06T09:33:53.268Z,18.12
2018-04-06T09:36:20.297Z,17.42
2018-04-06T09:38:46.539Z,17.60
2018-04-06T09:41:12.769Z,16.62
2018-04-06T09:43:38.998Z,23.87
2018-04-06T09:46:05.232Z,18.83
2018-04-06T09:48:31.486Z,18.00
2018-04-06T09:50:58.454Z,20.95
2018-04-06T09:53:24.692Z,16.87
2018-04-06T09:55:50.936Z,16.25
2018-04-06T09:58:17.158Z,13.93
2018-04-06T10:00:43.404Z,15.45
2018-04-06T10:03:09.666Z,16.02
2018-04-06T10:05:35.906Z,14.27
2018-04-06T10:08:02.180Z,17.02
2018-04-06T10:10:29.150Z,10.43
2018-04-06T10:12:56.143Z,15.47
2018-04-06T10:15:22.399Z,12.53
2018-04-06T10:17:48.672Z,12.30
2018-04-06T10:20:14.893Z,24.00
2018-04-06T10:22:41.139Z,13.90
2018-04-06T10:25:07.380Z,15.53
2018-04-06T10:27:33.622Z,12.53
2018-04-06T10:29:59.847Z,13.03
2018-04-06T10:32:26.071Z,11.07
2018-04-06T10:34:52.273Z,15.53
2018-04-06T10:37:18.550Z,11.67
2018-04-06T10:39:44.773Z,13.43
2018-04-06T10:42:11.040Z,13.77
2018-04-06T10:44:37.282Z,9.13
2018-04-06T10:47:04.289Z,12.27
2018-04-06T10:49:31.277Z,12.80
2018-04-06T10:51:57.507Z,10.77
2018-04-06T10:54:23.735Z,12.27
2018-04-06T10:56:50.700Z,17.47
2018-04-06T10:59:16.925Z,11.63
2018-04-06T11:01:43.921Z,15.53
2018-04-06T11:04:10.125Z,12.47
2018-04-06T11:06:37.088Z,10.80
2018-04-06T11:09:05.075Z,14.47
2018-04-06T11:11:31.299Z,9.13
2018-04-06T11:13:58.263Z,11.03
2018-04-06T11:16:25.224Z,13.60
2018-04-06T11:18:52.204Z,11.87
2018-04-06T11:21:18.411Z,14.57
2018-04-06T11:23:45.452Z,9.80
2018-04-06T11:26:11.680Z,10.10
2018-04-06T11:28:37.921Z,6.73
2018-04-06T11:31:04.127Z,10.63
2018-04-06T11:33:32.066Z,11.07
2018-04-06T11:36:00.001Z,10.80
2018-04-06T11:38:27.947Z,11.60
2018-04-06T11:40:55.876Z,12.30
2018-04-06T11:43:22.118Z,9.20
2018-04-06T11:45:48.322Z,13.17
2018-04-06T11:48:14.560Z,21.50
2018-04-06T11:50:40.780Z,12.30
2018-04-06T11:53:07.078Z,14.50
2018-04-06T11:55:33.275Z,10.13
2018-04-06T11:57:59.528Z,17.03
2018-04-06T12:00:25.778Z,10.83
2018-04-06T12:02:52.001Z,11.73
2018-04-06T12:05:18.252Z,11.43
2018-04-06T12:07:44.488Z,17.13
2018-04-06T12:10:10.740Z,11.83
2018-04-06T12:12:37.010Z,12.87
2018-04-06T12:15:04.001Z,11.03
2018-04-06T12:17:30.974Z,11.47
2018-04-06T12:19:57.189Z,11.33
2018-04-06T12:22:24.128Z,11.33
2018-04-06T12:24:50.369Z,15.10
2018-04-06T12:27:16.867Z,11.63
2018-04-06T12:29:43.073Z,10.40
2018-04-06T12:32:09.302Z,13.90
2018-04-06T12:34:35.545Z,12.27
2018-04-06T12:37:01.779Z,11.80
2018-04-06T12:39:29.508Z,16.10
2018-04-06T12:41:55.739Z,14.97
2018-04-06T12:44:21.954Z,13.33
2018-04-06T12:46:48.933Z,18.00
2018-04-06T12:49:15.166Z,9.70
2018-04-06T12:51:42.145Z,12.70
2018-04-06T12:54:08.487Z,13.83
2018-04-06T12:56:34.725Z,18.23
2018-04-06T12:59:00.991Z,15.13
2018-04-06T13:01:27.229Z,15.17
2018-04-06T13:03:53.455Z,9.40
2018-04-06T13:06:19.726Z,13.13
2018-04-06T13:08:45.955Z,10.60
2018-04-06T13:11:12.176Z,15.40
2018-04-06T13:13:38.409Z,12.10
2018-04-06T13:16:04.665Z,12.23
2018-04-06T13:18:30.893Z,12.93
2018-04-06T13:20:57.113Z,10.60
2018-04-06T13:23:24.142Z,10.40
2018-04-06T13:25:50.341Z,13.50
2018-04-06T13:28:16.625Z,13.77
2018-04-06T13:30:42.868Z,9.37
2018-04-06T13:33:09.098Z,11.47
2018-04-06T13:35:35.353Z,14.20
2018-04-06T13:38:01.587Z,11.17
2018-04-06T13:40:27.817Z,11.43
2018-04-06T13:42:54.043Z,9.80
2018-04-06T13:45:20.346Z,13.87
2018-04-06T13:47:46.595Z,11.03
2018-04-06T13:50:12.831Z,11.70
2018-04-06T13:52:39.079Z,11.80
2018-04-06T13:55:05.369Z,12.00
2018-04-06T13:57:31.628Z,11.40
2018-04-06T13:59:57.901Z,10.63
2018-04-06T14:02:24.126Z,10.70
2018-04-06T14:04:51.138Z,9.70
2018-04-06T14:07:18.101Z,11.03
2018-04-06T14:09:44.371Z,12.87
2018-04-06T14:12:11.332Z,12.67
2018-04-06T14:14:38.300Z,13.40
2018-04-06T14:17:04.613Z,13.20
2018-04-06T14:19:30.880Z,14.43
2018-04-06T14:21:57.838Z,12.63
2018-04-06T14:24:24.826Z,16.83
2018-04-06T14:26:51.107Z,15.40
2018-04-06T14:29:17.372Z,10.37
2018-04-06T14:31:44.349Z,12.10
2018-04-06T14:34:10.616Z,13.93
2018-04-06T14:36:36.860Z,13.60
2018-04-06T14:39:03.160Z,17.53
2018-04-06T14:41:30.118Z,13.40
2018-04-06T14:43:57.109Z,12.37
2018-04-06T14:46:23.352Z,11.97
2018-04-06T14:48:49.586Z,12.47
2018-04-06T14:51:15.802Z,10.53
2018-04-06T14:53:42.767Z,13.03
2018-04-06T14:56:08.999Z,11.53
2018-04-06T14:58:35.977Z,11.57
2018-04-06T15:01:02.254Z,12.33
2018-04-06T15:03:28.478Z,11.67
2018-04-06T15:05:54.722Z,10.00
2018-04-06T15:08:20.964Z,12.73
2018-04-06T15:10:47.200Z,11.57
2018-04-06T15:13:13.464Z,11.20
2018-04-06T15:15:39.699Z,13.10
2018-04-06T15:18:05.946Z,9.80
2018-04-06T15:20:32.214Z,11.00
2018-04-06T15:22:59.182Z,11.00
2018-04-06T15:25:28.435Z,14.07
2018-04-06T15:27:54.684Z,10.23
2018-04-06T15:30:20.931Z,12.23
2018-04-06T15:32:47.171Z,9.33
2018-04-06T15:35:13.452Z,11.47
2018-04-06T15:37:40.430Z,14.33
2018-04-06T15:40:06.677Z,10.60
2018-04-06T15:42:32.931Z,16.27
2018-04-06T15:44:59.202Z,11.60
2018-04-06T15:47:25.443Z,9.63
2018-04-06T15:49:51.699Z,11.00
2018-04-06T15:52:17.931Z,13.00
2018-04-06T15:54:44.142Z,10.67
2018-04-06T15:57:10.401Z,10.90
2018-04-06T15:59:36.670Z,13.30
2018-04-06T16:02:03.651Z,11.77
2018-04-06T16:04:29.887Z,8.77
2018-04-06T16:06:56.130Z,9.60
2018-04-06T16:09:22.353Z,10.50
2018-04-06T16:11:49.404Z,14.50
2018-04-06T16:14:16.390Z,7.73
2018-04-06T16:16:42.641Z,11.13
2018-04-06T16:19:08.845Z,9.93
2018-04-06T16:21:35.096Z,10.00
2018-04-06T16:24:02.099Z,8.67
2018-04-06T16:26:28.386Z,11.60
2018-04-06T16:28:55.356Z,12.00
2018-04-06T16:31:22.339Z,8.17
2018-04-06T16:33:48.570Z,9.97
2018-04-06T16:36:14.818Z,11.07
2018-04-06T16:38:41.035Z,13.50
2018-04-06T16:41:08.037Z,9.00
2018-04-06T16:43:34.252Z,8.80
2018-04-06T16:46:00.531Z,9.80
2018-04-06T16:48:27.066Z,10.00
2018-04-06T16:50:53.366Z,9.47
2018-04-06T16:53:20.333Z,10.20
2018-04-06T16:55:46.604Z,9.90
2018-04-06T16:58:12.847Z,11.20
2018-04-06T17:00:39.065Z,7.90
2018-04-06T17:03:05.333Z,8.50
2018-04-06T17:05:31.571Z,14.43
2018-04-06T17:07:57.842Z,10.30
2018-04-06T17:10:24.823Z,16.10
2018-04-06T17:12:51.803Z,9.70
2018-04-06T17:15:18.035Z,9.97
2018-04-06T17:17:44.279Z,9.77
2018-04-06T17:20:10.512Z,14.20
2018-04-06T17:22:37.011Z,20.73
2018-04-06T17:25:03.389Z,10.80
2018-04-06T17:27:30.355Z,21.37
2018-04-06T17:29:56.576Z,12.93
2018-04-06T17:32:23.571Z,14.43
2018-04-06T17:34:49.821Z,13.33
2018-04-06T17:37:16.067Z,13.70
2018-04-06T17:39:42.315Z,13.57
2018-04-06T17:42:08.571Z,15.60
2018-04-06T17:44:34.829Z,11.60
2018-04-06T17:47:01.838Z,13.83
2018-04-06T17:49:28.067Z,12.20
2018-04-06T17:51:54.326Z,15.93
2018-04-06T17:54:20.566Z,16.67
2018-04-06T17:56:46.794Z,12.90
2018-04-06T17:59:13.051Z,16.00
2018-04-06T18:01:39.321Z,14.57
2018-04-06T18:04:05.544Z,12.87
2018-04-06T18:06:31.824Z,16.83
2018-04-06T18:08:58.808Z,13.70
2018-04-06T18:11:25.064Z,16.00
2018-04-06T18:13:51.317Z,14.90
2018-04-06T18:16:17.591Z,16.80
2018-04-06T18:18:43.883Z,13.90
2018-04-06T18:21:10.124Z,18.60
2018-04-06T18:23:36.437Z,17.67
2018-04-06T18:26:02.701Z,15.80
2018-04-06T18:28:28.981Z,17.08
2018-04-06T18:30:55.251Z,19.37
2018-04-06T18:33:22.298Z,17.80
2018-04-06T18:35:48.561Z,17.60
2018-04-06T18:38:15.635Z,16.45
2018-04-06T18:40:41.908Z,17.10
2018-04-06T18:43:08.957Z,21.27
2018-04-06T18:45:35.256Z,21.70
2018-04-06T18:48:02.297Z,25.23
2018-04-06T18:50:28.544Z,17.90
2018-04-06T18:52:54.799Z,14.73
2018-04-06T18:55:21.787Z,17.70
2018-04-06T18:57:48.044Z,11.95
2018-04-06T19:00:14.286Z,16.40
2018-04-06T19:02:40.594Z,16.37
2018-04-06T19:05:06.860Z,16.75
2018-04-06T19:07:33.244Z,21.73
2018-04-06T19:09:59.541Z,15.60
2018-04-06T19:12:25.806Z,15.50
2018-04-06T19:14:52.036Z,17.67
2018-04-06T19:17:18.278Z,12.27
2018-04-06T19:19:44.580Z,16.58
2018-04-06T19:22:11.606Z,15.85
2018-04-06T19:24:38.011Z,16.58
2018-04-06T19:27:04.283Z,10.27
2018-04-06T19:29:30.579Z,15.15
2018-04-06T19:31:56.972Z,12.27
2018-04-06T19:34:23.282Z,13.77
2018-04-06T19:36:49.556Z,9.13
2018-04-06T19:39:15.827Z,10.98
2018-04-06T19:41:42.850Z,16.05
2018-04-06T19:44:09.200Z,10.65
2018-04-06T19:46:35.524Z,13.98
2018-04-06T19:49:01.853Z,13.77
2018-04-06T19:51:28.078Z,12.48
2018-04-06T19:53:54.399Z,11.48
2018-04-06T19:56:21.419Z,12.00
2018-04-06T19:58:47.737Z,9.65
2018-04-06T20:01:14.011Z,11.82
2018-04-06T20:03:40.271Z,13.55
2018-04-06T20:06:06.519Z,12.75
2018-04-06T20:08:33.520Z,11.60
2018-04-06T20:10:59.805Z,10.10
2018-04-06T20:13:26.083Z,12.40
2018-04-06T20:15:52.390Z,10.80
2018-04-06T20:18:18.675Z,10.65
2018-04-06T20:20:44.961Z,10.75
2018-04-06T20:23:11.197Z,14.32
2018-04-06T20:25:37.477Z,11.90
2018-04-06T20:28:04.464Z,10.30
2018-04-06T20:30:30.724Z,12.90
2018-04-06T20:32:57.173Z,18.70
2018-04-06T20:35:23.427Z,11.73
2018-04-06T20:37:49.687Z,14.75
2018-04-06T20:40:15.960Z,11.18
2018-04-06T20:42:42.184Z,13.35
2018-04-06T20:45:09.183Z,13.95
2018-04-06T20:47:35.427Z,14.70
2018-04-06T20:50:01.673Z,15.32
2018-04-06T20:52:27.909Z,11.18
2018-04-06T20:54:54.172Z,13.20
2018-04-06T20:57:20.416Z,15.20
2018-04-06T20:59:46.648Z,15.63
2018-04-06T21:02:12.897Z,13.60
2018-04-06T21:04:39.153Z,13.88
2018-04-06T21:07:05.390Z,15.85
2018-04-06T21:09:31.630Z,14.32
2018-04-06T21:11:57.874Z,17.12
2018-04-06T21:14:24.140Z,14.70
2018-04-06T21:16:50.362Z,16.87
2018-04-06T21:19:17.354Z,17.75
2018-04-06T21:21:43.608Z,17.05
2018-04-06T21:24:09.846Z,17.62
2018-04-06T21:26:36.063Z,21.45
2018-04-06T21:29:02.298Z,14.87
2018-04-06T21:31:29.267Z,18.95
2018-04-06T21:33:55.751Z,14.40
2018-04-06T21:36:22.004Z,15.45
2018-04-06T21:38:48.235Z,15.90
2018-04-06T21:41:14.459Z,19.55
2018-04-06T21:43:40.679Z,16.15
2018-04-06T21:46:06.932Z,16.58
2018-04-06T21:48:33.171Z,15.60
2018-04-06T21:50:59.398Z,18.33
2018-04-06T21:53:25.650Z,15.80
2018-04-06T21:55:51.935Z,16.42
2018-04-06T21:58:18.144Z,23.02
2018-04-06T22:00:44.445Z,20.55
2018-04-06T22:03:11.618Z,21.62
2018-04-06T22:05:37.841Z,18.90
2018-04-06T22:08:04.819Z,17.08
2018-04-06T22:10:31.087Z,17.80
2018-04-06T22:12:57.311Z,20.27
2018-04-06T22:15:23.566Z,19.62
2018-04-06T22:17:49.795Z,20.88
2018-04-06T22:20:16.029Z,19.50
2018-04-06T22:22:42.240Z,19.52
2018-04-06T22:25:09.224Z,19.55
2018-04-06T22:27:35.436Z,19.58
2018-04-06T22:30:02.449Z,18.83
2018-04-06T22:32:28.655Z,19.92
2018-04-06T22:34:54.925Z,21.25
2018-04-06T22:37:21.167Z,20.48
2018-04-06T22:39:47.413Z,18.62
2018-04-06T22:42:13.627Z,18.60
2018-04-06T22:44:39.842Z,18.95
2018-04-06T22:47:06.830Z,22.25
2018-04-06T22:49:33.059Z,21.35
2018-04-06T22:51:59.292Z,21.37
2018-04-06T22:54:25.528Z,22.60
2018-04-06T22:56:52.494Z,25.27
2018-04-06T22:59:18.736Z,21.02
2018-04-06T23:01:44.988Z,19.45
2018-04-06T23:04:11.206Z,19.58
2018-04-06T23:06:38.189Z,19.25
2018-04-06T23:09:04.466Z,24.65
2018-04-06T23:11:30.724Z,19.30
2018-04-06T23:13:56.957Z,18.70
2018-04-06T23:16:23.197Z,18.45
2018-04-06T23:18:49.412Z,18.00
2018-04-06T23:21:15.651Z,16.50
2018-04-06T23:23:41.869Z,22.00
2018-04-06T23:26:08.136Z,21.55
2018-04-06T23:28:34.374Z,22.90
2018-04-06T23:31:00.636Z,20.48
2018-04-06T23:33:26.854Z,17.80
2018-04-06T23:35:53.113Z,24.83
2018-04-06T23:38:19.320Z,20.88
2018-04-06T23:40:45.540Z,17.60
2018-04-06T23:43:11.747Z,21.25
2018-04-06T23:45:37.991Z,21.80
2018-04-06T23:48:04.235Z,21.10
2018-04-06T23:50:31.190Z,21.17
2018-04-06T23:52:57.391Z,23.90
2018-04-06T23:55:23.616Z,19.60
2018-04-06T23:57:49.855Z,22.05
